• Join FlightAware (Why Join?)
  • Login
  • US Flag 
12:47PM EST


 

Airport Tracker/Info


-or-


 

Live Flight TrackerFlight Track Log ✈ ASH3770 ✈ 11-Apr-2013 ✈ KIAD - KAUS

Flight Track Log - Related Links

Times and Time Zones

All times are in EDT time to prevent confusion due to time zone crossing. See the ASH3770 flight status page for this flight to view local times or setup timezone preferences in your user account.

Time Position Orientation Groundspeed Altitude Reporting Facility
EDT Latitude Longitude Course Direction KTS MPH feet Rate Location/Type
12:56PM 38.9167 -77.4500 191° South 171 197 1,700  Level Potomac TRACON
12:57PM 38.8500 -77.4667 191° South 248 285 2,700 1,800 Climbing Potomac TRACON
12:58PM 38.7833 -77.4833 191° South 275 316 5,300 2,820 Climbing Potomac TRACON
12:59PM 38.7333 -77.5333 218° Southwest 267 307 8,500 2,520 Climbing Potomac TRACON
01:00PM 38.7442 -77.6253 279° West 264 304 10,400 1,680 Climbing Washington Center
01:01PM 38.7650 -77.7403 283° West 308 354 11,800 1,740 Climbing Washington Center
01:02PM 38.7858 -77.8475 284° West 346 398 13,900 1,860 Climbing Washington Center
01:03PM 38.8089 -77.9600 285° West 340 391 15,600 1,560 Climbing Washington Center
01:04PM 38.8275 -78.0697 282° West 340 391 17,100 1,620 Climbing Washington Center
01:05PM 38.8517 -78.2067 283° West 345 397 18,900 1,680 Climbing Washington Center
01:06PM 38.8533 -78.3186 271° West 352 405 20,600 1,500 Climbing Washington Center
01:07PM 38.8522 -78.4597 269° West 357 411 21,900 1,260 Climbing Washington Center
01:08PM 38.8533 -78.5825 271° West 363 418 23,200 1,440 Climbing Washington Center
01:09PM 38.8517 -78.7239 269° West 368 423 24,800 1,260 Climbing Washington Center
01:10PM 38.8503 -78.8544 269° West 368 423 25,800 780 Climbing Washington Center
01:11PM 38.8447 -78.9875 267° West 363 418 26,400 540 Climbing Washington Center
01:12PM 38.8156 -79.1272 255° West 382 440 26,900 480 Climbing Washington Center
01:13PM 38.7744 -79.2503 247° West 419 482 27,400 540 Climbing Washington Center
01:14PM 38.7347 -79.3894 250° West 424 488 28,000 600 Climbing Washington Center
01:15PM 38.6944 -79.5336 250° West 424 488 28,700 780 Climbing Washington Center
01:16PM 38.6517 -79.6911 251° West 424 488 29,600 840 Climbing Washington Center
01:17PM 38.6156 -79.8350 252° West 424 488 30,500 900 Climbing Washington Center
01:18PM 38.5811 -79.9767 253° West 424 488 31,400 900 Climbing Washington Center
01:19PM 38.5533 -80.1078 255° West 419 482 32,300 900 Climbing Washington Center
01:21PM 38.4983 -80.3428 253° West 400 460 34,100 960 Climbing Indianapolis Center
01:22PM 38.4656 -80.4911 254° West 388 447 35,200 780 Climbing Indianapolis Center
01:23PM 38.4353 -80.6203 253° West 381 438 35,800 360 Climbing Indianapolis Center
01:24PM 38.4056 -80.7508 254° West 381 438 36,000 60 Climbing Indianapolis Center
01:25PM 38.3736 -80.8853 253° West 392 451 36,000  Level Indianapolis Center
01:26PM 38.3425 -81.0233 254° West 401 461 36,000  Level Indianapolis Center
01:27PM 38.3033 -81.1894 253° West 406 467 36,000  Level Indianapolis Center
01:28PM 38.2692 -81.3292 253° West 410 472 36,000  Level Indianapolis Center
01:29PM 38.2369 -81.4700 254° West 409 471 36,000  Level Indianapolis Center
01:30PM 38.2028 -81.6103 253° West 412 474 36,000  Level Indianapolis Center
01:31PM 38.1692 -81.7514 253° West 415 478 36,000  Level Indianapolis Center
01:32PM 38.1356 -81.8917 253° West 414 476 36,000  Level Indianapolis Center
01:33PM 38.1014 -82.0331 253° West 416 479 36,000  Level Indianapolis Center
01:34PM 38.0658 -82.1808 253° West 417 480 36,000  Level Indianapolis Center
01:35PM 38.0253 -82.3436 252° West 418 481 36,000  Level Indianapolis Center
01:36PM 37.9908 -82.4836 253° West 419 482 36,000  Level Indianapolis Center
01:37PM 37.9558 -82.6253 253° West 421 484 36,000  Level Indianapolis Center
01:38PM 37.9451 -82.6373 253° West  Level FlightAware Approximate
01:38PM 37.9208 -82.7667 253° West 421 484 36,000  Level Indianapolis Center
01:39PM 37.8850 -82.9058 252° West 418 481 36,000  Level Indianapolis Center
01:40PM 37.8500 -83.0464 253° West 418 481 36,000  Level Indianapolis Center
01:41PM 37.8097 -83.2083 253° West 414 476 36,000  Level Indianapolis Center
01:43PM 37.7389 -83.4792 252° West 407 468 36,000  Level Indianapolis Center
01:45PM 37.7036 -83.6147 252° West 406 467 36,000  Level Indianapolis Center
01:46PM 37.6689 -83.7500 252° West 405 466 36,000  Level Indianapolis Center
01:47PM 37.6278 -83.9067 252° West 404 465 36,000  Level Indianapolis Center
01:48PM 37.5925 -84.0417 252° West 405 466 36,000  Level Indianapolis Center
01:49PM 37.5564 -84.1772 251° West 407 468 36,000  Level Indianapolis Center
01:50PM 37.5214 -84.3083 251° West 399 459 36,000  Level Indianapolis Center
01:51PM 37.4856 -84.4425 251° West 404 465 36,000  Level Indianapolis Center
01:52PM 37.4497 -84.5750 251° West 401 461 36,000  Level Indianapolis Center
01:53PM 37.4081 -84.7306 251° West 401 461 36,000  Level Indianapolis Center
01:54PM 37.3708 -84.8650 251° West 404 465 36,000  Level Indianapolis Center
01:55PM 37.3333 -85.0006 251° West 409 471 36,000  Level Indianapolis Center
01:56PM 37.2964 -85.1344 251° West 408 470 36,000  Level Indianapolis Center
01:57PM 37.2597 -85.2667 251° West 402 463 36,000  Level Indianapolis Center
01:58PM 37.2236 -85.3975 251° West 398 458 36,000  Level Indianapolis Center
01:59PM 37.1850 -85.5414 251° West 397 457 36,000  Level Indianapolis Center
02:00PM 37.1647 -85.6275 254° West 392 451 36,000  Level Memphis Center
02:01PM 37.1258 -85.7572 249° West 392 451 36,000  Level Memphis Center
02:02PM 37.0869 -85.8922 250° West 392 451 36,000 300 Level Memphis Center
02:03PM 37.0497 -86.0214 250° West 392 451 36,600 600 Climbing Memphis Center
02:04PM 37.0144 -86.1431 250° West 387 445 37,200 480 Climbing Memphis Center
02:05PM 36.9811 -86.2642 251° West 382 440 37,600 360 Climbing Memphis Center
02:06PM 36.9472 -86.3828 250° West 372 428 38,000 180 Climbing Memphis Center
02:07PM 36.9008 -86.4939 242° Southwest 367 422 38,000  Level Memphis Center
02:08PM 36.8458 -86.6003 237° Southwest 372 428 38,000  Level Memphis Center
02:09PM 36.7886 -86.7067 236° Southwest 377 434 38,000  Level Memphis Center
02:10PM 36.7333 -86.8128 237° Southwest 377 434 38,000  Level Memphis Center
02:11PM 36.6778 -86.9186 237° Southwest 377 434 38,000  Level Memphis Center
02:12PM 36.6203 -87.0244 236° Southwest 377 434 38,000  Level Memphis Center
02:13PM 36.5647 -87.1275 236° Southwest 377 434 38,000  Level Memphis Center
02:14PM 36.5069 -87.2306 235° Southwest 377 434 38,000  Level Memphis Center
02:15PM 36.4492 -87.3358 236° Southwest 377 434 38,000  Level Memphis Center
02:16PM 36.3931 -87.4411 237° Southwest 377 434 38,000  Level Memphis Center
02:17PM 36.3431 -87.5306 235° Southwest 372 428 38,000  Level Memphis Center
02:18PM 36.2828 -87.6331 234° Southwest 367 422 38,000  Level Memphis Center
02:19PM 36.2289 -87.7353 237° Southwest 362 417 38,000  Level Memphis Center
02:20PM 36.1725 -87.8347 235° Southwest 362 417 38,000  Level Memphis Center
02:21PM 36.1161 -87.9342 235° Southwest 362 417 38,000  Level Memphis Center
02:22PM 36.0575 -88.0386 235° Southwest 362 417 38,000  Level Memphis Center
02:23PM 36.0072 -88.1297 236° Southwest 362 417 38,000  Level Memphis Center
02:24PM 35.9486 -88.2339 235° Southwest 357 411 38,000  Level Memphis Center
02:25PM 35.8919 -88.3353 235° Southwest 362 417 38,000  Level Memphis Center
02:26PM 35.8331 -88.4392 235° Southwest 367 422 38,000  Level Memphis Center
02:27PM 35.7761 -88.5428 236° Southwest 367 422 38,000  Level Memphis Center
02:28PM 35.7172 -88.6464 235° Southwest 367 422 38,000  Level Memphis Center
02:29PM 35.6519 -88.7578 234° Southwest 367 422 38,000  Level Memphis Center
02:30PM 35.5969 -88.8633 237° Southwest 367 422 38,000  Level Memphis Center
02:31PM 35.5378 -88.9639 234° Southwest 372 428 38,000  Level Memphis Center
02:32PM 35.4803 -89.0669 236° Southwest 372 428 38,000  Level Memphis Center
02:33PM 35.4167 -89.1697 233° Southwest 380 437 38,000  Level Memphis Center
02:34PM 35.3572 -89.2750 235° Southwest 380 437 38,000  Level Memphis Center
02:35PM 35.3058 -89.3697 236° Southwest 375 432 38,000  Level Memphis Center
02:36PM 35.2461 -89.4722 235° Southwest 380 437 38,000  Level Memphis Center
02:37PM 35.1883 -89.5744 235° Southwest 380 437 38,000  Level Memphis Center
02:38PM 35.1306 -89.6767 235° Southwest 380 437 38,000  Level Memphis Center
02:39PM 35.0706 -89.7811 235° Southwest 380 437 38,000  Level Memphis Center
02:40PM 35.0106 -89.8881 236° Southwest 380 437 38,000  Level Memphis Center
02:41PM 34.9483 -89.9897 233° Southwest 380 437 38,000  Level Memphis Center
02:42PM 34.8861 -90.0939 234° Southwest 380 437 38,000  Level Memphis Center
02:43PM 34.8236 -90.1953 233° Southwest 380 437 38,000  Level Memphis Center
02:44PM 34.7633 -90.2964 234° Southwest 380 437 38,000  Level Memphis Center
02:45PM 34.7028 -90.3950 233° Southwest 380 437 38,000  Level Memphis Center
02:46PM 34.6422 -90.4986 235° Southwest 380 437 38,000  Level Memphis Center
02:47PM 34.5814 -90.6019 234° Southwest 380 437 38,000  Level Memphis Center
02:48PM 34.5144 -90.7100 233° Southwest 374 430 38,000  Level Memphis Center
02:49PM 34.4536 -90.8106 234° Southwest 379 436 38,000  Level Memphis Center
02:50PM 34.4011 -90.9211 240° Southwest 379 436 38,000  Level Memphis Center
02:51PM 34.3567 -91.0364 245° Southwest 379 436 38,000  Level Memphis Center
02:52PM 34.3100 -91.1517 244° Southwest 379 436 38,000  Level Memphis Center
02:53PM 34.2656 -91.2694 245° Southwest 386 444 38,000  Level Memphis Center
02:54PM 34.2186 -91.3794 243° Southwest 381 438 38,000  Level Memphis Center
02:55PM 34.1739 -91.4944 245° Southwest 381 438 38,000  Level Memphis Center
02:56PM 34.1269 -91.6117 244° Southwest 381 438 38,000  Level Memphis Center
02:57PM 34.0797 -91.7239 243° Southwest 381 438 38,000  Level Memphis Center
02:58PM 34.0367 -91.8411 246° West 381 438 38,000  Level Memphis Center
03:00PM 33.9372 -92.0889 244° Southwest 390 449 38,000  Level Fort Worth Center
03:01PM 33.8919 -92.2042 245° Southwest 390 449 38,000  Level Fort Worth Center
03:02PM 33.8447 -92.3194 244° Southwest 390 449 38,000  Level Fort Worth Center
03:03PM 33.7969 -92.4322 243° Southwest 395 455 38,000  Level Fort Worth Center
03:04PM 33.7492 -92.5450 243° Southwest 395 455 38,000  Level Fort Worth Center
03:05PM 33.7033 -92.6547 243° Southwest 390 449 38,000  Level Fort Worth Center
03:06PM 33.6556 -92.7697 244° Southwest 390 449 38,000  Level Fort Worth Center
03:07PM 33.6075 -92.8844 243° Southwest 390 449 38,000  Level Fort Worth Center
03:08PM 33.5594 -92.9992 243° Southwest 390 449 38,000  Level Fort Worth Center
03:09PM 33.5114 -93.1136 243° Southwest 390 449 38,000  Level Fort Worth Center
03:10PM 33.4631 -93.2281 243° Southwest 396 456 38,000  Level Fort Worth Center
03:11PM 33.4125 -93.3422 242° Southwest 396 456 38,000  Level Fort Worth Center
03:12PM 33.3719 -93.4436 244° Southwest 396 456 38,000  Level Fort Worth Center
03:13PM 33.3214 -93.5603 243° Southwest 396 456 38,000  Level Fort Worth Center
03:14PM 33.2706 -93.6742 242° Southwest 396 456 38,000  Level Fort Worth Center
03:15PM 33.2194 -93.7881 242° Southwest 396 456 38,000  Level Fort Worth Center
03:16PM 33.1686 -93.9094 243° Southwest 401 461 38,000  Level Fort Worth Center
03:17PM 33.1197 -94.0278 244° Southwest 401 461 38,000  Level Fort Worth Center
03:18PM 33.0686 -94.1439 242° Southwest 401 461 38,000  Level Fort Worth Center
03:19PM 33.0175 -94.2647 243° Southwest 401 461 38,000  Level Fort Worth Center
03:20PM 32.9639 -94.3828 242° Southwest 401 461 38,000  Level Fort Worth Center
03:21PM 32.9103 -94.5033 242° Southwest 406 467 38,000  Level Fort Worth Center
03:22PM 32.8569 -94.6336 244° Southwest 406 467 38,000  Level Fort Worth Center
03:23PM 32.8053 -94.7539 243° Southwest 406 467 38,000  Level Fort Worth Center
03:24PM 32.7514 -94.8742 242° Southwest 412 474 38,000  Level Fort Worth Center
03:25PM 32.6953 -94.9967 241° Southwest 412 474 38,000  Level Fort Worth Center
03:26PM 32.6433 -95.1164 243° Southwest 412 474 38,000  Level Fort Worth Center
03:27PM 32.5892 -95.2386 242° Southwest 417 480 38,000  Level Fort Worth Center
03:28PM 32.5328 -95.3583 241° Southwest 417 480 38,000  Level Fort Worth Center
03:29PM 32.4906 -95.4553 243° Southwest 417 480 38,000  Level Fort Worth Center
03:30PM 32.4281 -95.6092 244° Southwest 417 480 38,000  Level Fort Worth Center
03:31PM 32.3733 -95.7308 242° Southwest 422 486 38,000  Level Fort Worth Center
03:32PM 32.3164 -95.8550 242° Southwest 429 494 38,000  Level Fort Worth Center
03:33PM 32.2614 -95.9736 241° Southwest 420 483 38,000  Level Fort Worth Center
03:34PM 32.2128 -96.0875 243° Southwest 420 483 38,000  Level Fort Worth Center
03:35PM 32.1511 -96.2061 238° Southwest 420 483 38,000  Level Fort Worth Center
03:36PM 32.0961 -96.3467 245° Southwest 425 489 38,000  Level Fort Worth Center
03:37PM 32.0303 -96.4797 240° Southwest 430 495 38,000  Level Fort Worth Center
03:38PM 31.9747 -96.6003 242° Southwest 425 489 38,000  Level Fort Worth Center
03:39PM 31.9150 -96.7331 242° Southwest 425 489 38,000 -540 Level Fort Worth Center
03:40PM 31.8361 -96.8361 228° Southwest 425 489 37,000 -1,620 Descending Fort Worth Center
03:41PM 31.7258 -96.9078 209° Southwest 437 503 34,800 -2,460 Descending Fort Worth Center
03:42PM 31.6122 -96.9683 204° Southwest 462 532 32,000 -2,820 Descending Houston Center
03:43PM 31.4953 -97.0392 207° Southwest 467 537 29,000 -2,820 Descending Houston Center
03:44PM 31.3783 -97.1072 206° Southwest 466 536 26,200 -2,940 Descending Houston Center
03:45PM 31.2447 -97.1872 207° Southwest 460 529 22,900 -2,940 Descending Houston Center
03:46PM 31.1278 -97.2408 201° Southwest 444 511 20,200 -2,580 Descending Houston Center
03:47PM 31.0181 -97.2825 198° South 429 494 17,600 -2,460 Descending Houston Center
03:48PM 30.9172 -97.3225 199° South 413 475 15,200 -2,220 Descending Houston Center
03:49PM 30.8078 -97.3639 198° South 354 407 13,100 -1,380 Descending Houston Center
03:50PM 30.7147 -97.3728 185° South 328 377 12,400 -1,260 Descending Houston Center
03:51PM 30.6289 -97.3689 178° South 309 356 10,500 -1,740 Descending Houston Center
03:52PM 30.5453 -97.3656 178° South 301 346 8,800 -1,680 Descending Houston Center
03:53PM 30.4653 -97.3644 179° South 289 333 7,000 -1,380 Descending Houston Center
03:55PM 30.3875 -97.3611 178° South 280 322 6,000 -540 Descending Houston Center
03:56PM 30.2972 -97.3600 179° South 277 319 6,000  Level Houston Center
03:57PM 30.2211 -97.3664 184° South 270 311 6,000  Level Houston Center
03:58PM 30.1653 -97.3881 199° South 217 250 6,000  Level Houston Center
03:59PM 30.1106 -97.4083 198° South 207 238 6,000 -480 Level Houston Center
04:00PM 30.0600 -97.4389 208° Southwest 200 230 5,100 -480 Descending Houston Center
04:01PM 30.0342 -97.4914 240° Southwest 192 221 5,000 -420 Descending Houston Center
04:02PM 30.0225 -97.5625 259° West 190 219 4,300 -840 Descending Houston Center
04:03PM 30.0306 -97.6106 281° West 195 224 3,300 -1,140 Descending Houston Center
04:04PM 30.0983 -97.6508 333° Northwest 225 259 2,000 -1,020 Descending Houston Center
04:05PM 30.1431 -97.6572 353° North 186 214 1,300 -720 Descending Houston Center